Time;durP1;ratioP1;P1;durP2;ratioP2;P2;SDS_P1;SDS_P2;PMS_P1;PMS_P2;Temp;Humidity;BMP_temperature;BMP_pressure;BME280_temperature;BME280_humidity;BME280_pressure;Samples;Min_cycle;Max_cycle;Signal;HPM_P1;HPM_P2
2021/03/17 00:01:09;;;;;;;6.00;3.75;;;5.00;76.00;;;;;;5035427;28;20112;-65
2021/03/17 00:03:37;;;;;;;5.82;3.83;;;5.00;76.20;;;;;;5032369;28;20033;-65
2021/03/17 00:06:05;;;;;;;4.43;3.60;;;4.90;76.10;;;;;;5037397;28;20503;-65
2021/03/17 00:08:33;;;;;;;5.10;3.38;;;4.90;76.10;;;;;;5034948;28;20588;-65
2021/03/17 00:11:01;;;;;;;5.65;3.80;;;5.00;76.20;;;;;;5031080;28;20341;-65
2021/03/17 00:13:30;;;;;;;6.45;4.00;;;4.90;76.20;;;;;;5036409;28;20117;-65
2021/03/17 00:16:01;;;;;;;6.97;4.03;;;5.00;76.20;;;;;;5034223;28;20034;-65
2021/03/17 00:18:29;;;;;;;6.78;3.92;;;5.00;76.30;;;;;;5027276;28;20037;-65
2021/03/17 00:20:59;;;;;;;5.90;3.92;;;5.00;76.20;;;;;;5036680;28;20048;-65
2021/03/17 00:23:27;;;;;;;4.88;3.75;;;5.00;76.20;;;;;;5033960;28;20057;-65
2021/03/17 00:26:00;;;;;;;7.50;4.40;;;5.00;76.20;;;;;;5038139;28;20075;-65
2021/03/17 00:28:28;;;;;;;5.32;4.20;;;5.00;76.20;;;;;;5028016;28;20033;-65
2021/03/17 00:30:57;;;;;;;6.80;4.40;;;5.00;76.20;;;;;;5034759;28;20033;-65
2021/03/17 00:33:27;;;;;;;7.38;4.28;;;5.00;76.20;;;;;;5033268;28;20532;-65
2021/03/17 00:35:55;;;;;;;6.18;4.53;;;5.00;76.20;;;;;;5034970;28;20069;-65
2021/03/17 00:38:23;;;;;;;7.57;4.82;;;5.00;76.20;;;;;;5017196;28;20037;-66
2021/03/17 00:40:48;;;;;;;10.27;5.72;;;5.00;76.20;;;;;;5034145;28;20057;-65
2021/03/17 00:43:16;;;;;;;8.23;5.40;;;5.00;76.20;;;;;;5026670;28;22388;-65
2021/03/17 00:45:42;;;;;;;8.98;5.97;;;5.00;76.20;;;;;;5031333;28;20069;-65
2021/03/17 00:48:08;;;;;;;9.30;5.65;;;5.00;76.20;;;;;;5034006;28;20069;-65
2021/03/17 00:50:36;;;;;;;8.55;5.38;;;5.00;76.30;;;;;;5031648;28;20037;-65
2021/03/17 00:53:01;;;;;;;5.07;4.57;;;5.00;76.30;;;;;;5034422;28;20120;-65
2021/03/17 00:55:29;;;;;;;8.75;5.38;;;5.00;76.20;;;;;;5036461;28;20205;-65
2021/03/17 00:57:58;;;;;;;6.03;5.03;;;5.00;76.30;;;;;;5034718;28;20504;-65
2021/03/17 01:00:24;;;;;;;8.20;5.18;;;5.00;76.40;;;;;;5033847;28;20048;-65
2021/03/17 01:02:50;;;;;;;6.18;4.68;;;5.00;76.40;;;;;;5037152;28;20033;-66
2021/03/17 01:05:34;;;;;;;7.03;4.82;;;5.00;77.30;;;;;;5031640;28;20036;-66
2021/03/17 01:08:05;;;;;;;7.70;5.25;;;5.00;76.80;;;;;;5033499;28;20029;-65
2021/03/17 01:10:36;;;;;;;7.72;5.38;;;5.00;76.50;;;;;;5029919;28;20022;-65
2021/03/17 01:13:07;;;;;;;7.60;5.15;;;5.00;76.50;;;;;;5052499;28;20025;-65
2021/03/17 01:15:37;;;;;;;9.00;5.18;;;5.00;76.50;;;;;;5051700;28;20634;-66
2021/03/17 01:18:04;;;;;;;8.70;5.38;;;5.00;76.50;;;;;;5036939;28;20030;-66
2021/03/17 01:20:30;;;;;;;6.97;5.22;;;5.00;76.60;;;;;;5037145;28;20562;-66
2021/03/17 01:22:57;;;;;;;7.63;5.60;;;5.00;76.60;;;;;;5039785;28;20033;-65
2021/03/17 01:25:43;;;;;;;6.70;5.43;;;5.00;77.00;;;;;;5022994;28;20392;-65
2021/03/17 01:28:10;;;;;;;7.20;5.15;;;5.00;76.90;;;;;;5036152;28;20622;-66
2021/03/17 01:30:51;;;;;;;9.13;5.70;;;5.00;76.70;;;;;;5045911;28;20029;-65
2021/03/17 01:33:18;;;;;;;7.60;5.35;;;5.00;76.70;;;;;;5040036;28;20037;-65
2021/03/17 01:35:50;;;;;;;7.35;5.38;;;5.00;76.60;;;;;;5037316;28;20037;-65
2021/03/17 01:38:23;;;;;;;6.85;5.53;;;5.00;76.70;;;;;;5036348;28;20061;-65
2021/03/17 01:40:55;;;;;;;7.18;5.15;;;5.00;76.70;;;;;;5040557;28;20567;-65
2021/03/17 01:43:23;;;;;;;5.43;4.63;;;5.00;76.70;;;;;;5054489;28;20039;-65
2021/03/17 01:45:52;;;;;;;7.63;5.15;;;5.00;76.60;;;;;;5039169;28;20044;-65
2021/03/17 01:48:23;;;;;;;6.63;5.55;;;5.00;76.70;;;;;;5039565;28;20120;-66
2021/03/17 01:50:53;;;;;;;7.50;4.95;;;5.00;76.70;;;;;;5038992;28;20072;-65
2021/03/17 01:53:28;;;;;;;6.32;4.95;;;5.00;76.70;;;;;;5039762;28;20082;-65
2021/03/17 01:55:54;;;;;;;;;;;5.00;76.80;;;;;;5039385;28;20065;-66
2021/03/17 01:58:22;;;;;;;5.43;4.72;;;5.00;77.20;;;;;;5035030;28;19913;-65
2021/03/17 02:00:51;;;;;;;5.53;4.97;;;5.00;76.60;;;;;;5032219;28;20049;-65
2021/03/17 02:03:19;;;;;;;6.15;5.30;;;4.90;76.60;;;;;;5039418;28;20416;-66
2021/03/17 02:05:50;;;;;;;7.18;5.38;;;4.90;76.80;;;;;;5023949;28;20052;-65
2021/03/17 02:08:22;;;;;;;7.15;4.97;;;4.90;76.90;;;;;;5036556;28;20029;-66
2021/03/17 02:10:52;;;;;;;6.68;5.13;;;4.90;76.90;;;;;;5033946;28;20112;-66
2021/03/17 02:13:42;;;;;;;6.78;4.88;;;4.90;76.90;;;;;;5037371;28;20037;-65
2021/03/17 02:16:28;;;;;;;5.78;5.18;;;4.90;77.40;;;;;;5038391;28;20466;-66
2021/03/17 02:19:12;;;;;;;8.18;5.13;;;4.90;77.00;;;;;;5018829;28;20075;-65
2021/03/17 02:22:17;;;;;;;5.93;5.07;;;4.90;77.30;;;;;;5039538;28;20501;-65
2021/03/17 02:25:25;;;;;;;7.65;5.15;;;4.90;77.40;;;;;;5021735;28;20057;-65
2021/03/17 02:28:11;;;;;;;7.25;4.97;;;4.80;77.40;;;;;;5034780;28;20038;-65
2021/03/17 02:31:03;;;;;;;7.32;4.95;;;4.80;77.00;;;;;;5038567;28;20026;-65
2021/03/17 02:33:34;;;;;;;7.50;5.15;;;4.80;77.30;;;;;;5032471;28;20029;-64
2021/03/17 02:36:14;;;;;;;8.27;4.90;;;4.80;77.20;;;;;;5037120;28;20037;-66
2021/03/17 02:38:54;;;;;;;5.95;5.22;;;4.70;77.30;;;;;;5036840;28;20443;-65
2021/03/17 02:41:26;;;;;;;6.63;5.13;;;4.70;77.50;;;;;;5039099;28;20033;-65
2021/03/17 02:43:55;;;;;;;8.30;5.72;;;4.70;77.40;;;;;;5035630;28;20038;-65
2021/03/17 02:46:29;;;;;;;6.68;4.95;;;4.70;77.50;;;;;;5034435;28;20187;-66
2021/03/17 02:49:17;;;;;;;6.85;5.40;;;4.70;77.60;;;;;;5037401;28;20041;-65
2021/03/17 02:51:50;;;;;;;7.00;5.55;;;4.70;78.00;;;;;;5038568;28;20041;-65
2021/03/17 02:54:17;;;;;;;6.63;5.57;;;4.60;77.70;;;;;;5038776;28;20037;-65
2021/03/17 02:56:50;;;;;;;7.80;5.72;;;4.60;77.70;;;;;;5034861;28;20108;-64
2021/03/17 02:59:20;;;;;;;7.00;6.20;;;4.60;77.90;;;;;;5037718;28;20037;-65
2021/03/17 03:01:52;;;;;;;7.28;6.00;;;4.60;78.00;;;;;;5034839;28;20038;-65
2021/03/17 03:04:20;;;;;;;8.63;5.82;;;4.60;78.10;;;;;;5038417;28;20950;-65
2021/03/17 03:06:52;;;;;;;7.85;5.93;;;4.60;78.00;;;;;;5036485;28;20103;-65
2021/03/17 03:09:24;;;;;;;6.65;5.70;;;4.60;78.00;;;;;;5037546;28;20042;-65
2021/03/17 03:11:53;;;;;;;7.45;5.97;;;4.70;78.10;;;;;;5046701;28;20044;-65
2021/03/17 03:14:21;;;;;;;8.98;6.30;;;4.70;78.00;;;;;;5038384;28;20034;-65
2021/03/17 03:16:49;;;;;;;8.63;6.07;;;4.60;78.00;;;;;;5035414;28;20497;-64
2021/03/17 03:19:18;;;;;;;7.93;5.88;;;4.60;78.00;;;;;;5036161;28;20530;-65
2021/03/17 03:21:44;;;;;;;7.22;6.30;;;4.60;78.00;;;;;;5038328;28;20029;-65
2021/03/17 03:24:14;;;;;;;7.97;6.18;;;4.60;78.00;;;;;;5038321;28;20088;-65
2021/03/17 03:26:40;;;;;;;8.95;6.25;;;4.60;78.00;;;;;;5049015;28;20025;-65
2021/03/17 03:29:06;;;;;;;9.27;6.28;;;4.60;78.00;;;;;;5042482;28;20036;-65
2021/03/17 03:31:37;;;;;;;7.32;6.22;;;4.70;78.00;;;;;;5037169;28;20038;-66
2021/03/17 03:34:05;;;;;;;7.65;6.20;;;4.60;77.90;;;;;;5038251;28;20021;-66
2021/03/17 03:36:31;;;;;;;7.57;5.80;;;4.60;77.90;;;;;;5035573;28;20072;-66
2021/03/17 03:39:00;;;;;;;7.88;6.18;;;4.60;77.80;;;;;;5035953;28;20441;-66
2021/03/17 03:41:29;;;;;;;6.97;5.97;;;4.60;78.00;;;;;;5037715;28;20034;-65
2021/03/17 03:43:56;;;;;;;7.75;5.90;;;4.60;77.80;;;;;;5034864;28;20053;-66
2021/03/17 03:46:24;;;;;;;8.27;6.35;;;4.60;77.80;;;;;;5036065;28;20735;-65
2021/03/17 03:48:53;;;;;;;7.72;6.15;;;4.60;77.90;;;;;;5020432;28;20081;-66
2021/03/17 03:51:24;;;;;;;7.18;6.03;;;4.60;77.90;;;;;;5034371;28;20037;-66
2021/03/17 03:54:12;;;;;;;7.47;5.65;;;4.60;77.90;;;;;;5036318;28;20799;-66
2021/03/17 03:56:50;;;;;;;6.30;5.53;;;4.60;78.20;;;;;;5036028;28;20041;-66
2021/03/17 03:59:22;;;;;;;6.88;5.55;;;4.60;78.00;;;;;;5042914;28;20443;-65
2021/03/17 04:02:01;;;;;;;6.85;5.55;;;4.60;78.00;;;;;;5049113;28;20048;-65
2021/03/17 04:04:35;;;;;;;6.70;5.10;;;4.60;78.00;;;;;;5035356;28;20041;-65
2021/03/17 04:07:03;;;;;;;8.15;5.80;;;4.60;78.80;;;;;;5036336;28;20409;-65
2021/03/17 04:09:49;;;;;;;6.63;5.35;;;4.60;77.80;;;;;;5037269;28;20673;-65
2021/03/17 04:12:21;;;;;;;7.00;5.00;;;4.60;77.90;;;;;;5029130;28;20041;-66
2021/03/17 04:14:56;;;;;;;6.47;5.13;;;4.60;77.50;;;;;;5036001;28;20041;-65
2021/03/17 04:17:32;;;;;;;;;;;4.60;77.50;;;;;;5036485;28;20029;-67
2021/03/17 04:20:04;;;;;;;6.60;5.78;;;4.50;77.80;;;;;;5037338;28;20007;-66
2021/03/17 04:22:34;;;;;;;8.10;5.40;;;4.50;77.30;;;;;;5034224;28;20037;-66
2021/03/17 04:25:05;;;;;;;7.22;5.60;;;4.40;77.50;;;;;;5036389;28;20041;-65
2021/03/17 04:27:32;;;;;;;5.93;5.05;;;4.40;77.60;;;;;;5036439;28;20041;-66
2021/03/17 04:30:00;;;;;;;6.80;5.30;;;4.30;77.50;;;;;;5037624;28;20497;-65
2021/03/17 04:32:32;;;;;;;5.72;5.10;;;4.30;77.60;;;;;;5032547;28;20037;-65
2021/03/17 04:35:01;;;;;;;6.22;5.07;;;4.30;77.80;;;;;;5036439;28;20038;-66
2021/03/17 04:37:30;;;;;;;6.47;5.47;;;4.30;77.80;;;;;;5035287;28;20049;-65
2021/03/17 04:39:59;;;;;;;10.95;7.55;;;4.30;77.80;;;;;;5036756;28;20488;-66
2021/03/17 04:42:25;;;;;;;9.50;6.85;;;4.30;77.90;;;;;;5033839;28;20093;-65
2021/03/17 04:44:55;;;;;;;9.70;6.50;;;4.30;78.00;;;;;;5037838;28;20037;-66
2021/03/17 04:47:23;;;;;;;8.18;6.18;;;4.30;78.10;;;;;;5034717;28;20516;-65
2021/03/17 04:49:52;;;;;;;7.82;6.00;;;4.30;78.20;;;;;;5038797;28;20037;-66
2021/03/17 04:52:25;;;;;;;7.18;6.05;;;4.30;78.30;;;;;;5038655;28;20042;-65
2021/03/17 04:54:52;;;;;;;9.00;6.20;;;4.20;78.40;;;;;;5041051;28;20037;-65
2021/03/17 04:57:25;;;;;;;8.60;5.97;;;4.20;78.50;;;;;;5040204;28;20043;-65
2021/03/17 04:59:54;;;;;;;8.48;6.43;;;4.20;78.70;;;;;;5041231;28;20025;-66
2021/03/17 05:02:26;;;;;;;8.45;6.38;;;4.20;78.70;;;;;;5040630;28;20527;-66
2021/03/17 05:04:56;;;;;;;9.30;6.43;;;4.20;78.80;;;;;;5038275;28;20069;-66
2021/03/17 05:07:27;;;;;;;8.65;6.72;;;4.10;78.90;;;;;;5037362;28;20124;-65
2021/03/17 05:09:58;;;;;;;10.77;7.30;;;4.10;79.00;;;;;;5024651;28;20037;-65
2021/03/17 05:12:26;;;;;;;8.98;6.60;;;4.10;79.20;;;;;;5021878;28;20061;-65
2021/03/17 05:14:58;;;;;;;9.57;6.38;;;4.10;79.10;;;;;;5032069;28;20067;-65
2021/03/17 05:17:24;;;;;;;8.20;6.10;;;4.10;79.20;;;;;;5035402;28;20061;-65
2021/03/17 05:19:51;;;;;;;9.05;6.30;;;4.10;79.20;;;;;;5033658;28;20032;-66
2021/03/17 05:22:20;;;;;;;9.20;6.85;;;4.20;79.30;;;;;;5034537;28;20043;-66
2021/03/17 05:24:51;;;;;;;10.57;6.72;;;4.10;79.30;;;;;;5037753;28;20029;-65
2021/03/17 05:27:20;;;;;;;10.40;7.13;;;4.20;79.30;;;;;;5038147;28;20033;-65
2021/03/17 05:29:48;;;;;;;9.95;7.15;;;4.20;79.30;;;;;;5038036;28;20029;-66
2021/03/17 05:32:17;;;;;;;10.23;6.80;;;4.20;80.10;;;;;;5034192;28;20037;-65
2021/03/17 05:34:59;;;;;;;9.85;6.78;;;4.20;80.10;;;;;;5021074;28;20036;-65
2021/03/17 05:37:29;;;;;;;8.68;6.45;;;4.20;79.50;;;;;;5030645;28;20067;-65
2021/03/17 05:39:58;;;;;;;11.35;6.93;;;4.20;79.20;;;;;;5024966;28;20025;-65
2021/03/17 05:42:29;;;;;;;10.98;6.90;;;4.20;79.20;;;;;;5034365;28;20033;-65
2021/03/17 05:44:55;;;;;;;10.45;7.35;;;4.20;79.20;;;;;;5035325;28;20052;-65
2021/03/17 05:47:22;;;;;;;10.60;7.32;;;4.20;79.20;;;;;;5036719;28;20040;-66
2021/03/17 05:49:51;;;;;;;9.73;6.63;;;4.20;79.20;;;;;;5037470;28;20037;-65
2021/03/17 05:52:21;;;;;;;9.52;6.13;;;4.20;79.30;;;;;;5023321;28;20500;-65
2021/03/17 05:54:47;;;;;;;8.60;6.63;;;4.10;79.50;;;;;;5034707;28;20037;-65
2021/03/17 05:57:13;;;;;;;9.70;6.75;;;4.10;79.50;;;;;;5038010;28;20369;-66
2021/03/17 05:59:42;;;;;;;8.68;6.43;;;4.10;79.50;;;;;;5037728;28;20070;-65
2021/03/17 06:02:08;;;;;;;8.60;6.82;;;4.10;80.50;;;;;;5031501;28;20179;-65
2021/03/17 06:04:38;;;;;;;10.88;6.47;;;4.10;79.70;;;;;;5036931;28;20086;-65
2021/03/17 06:07:17;;;;;;;9.98;5.90;;;4.10;79.90;;;;;;5036094;28;20048;-65
2021/03/17 06:09:47;;;;;;;10.65;6.25;;;4.10;79.90;;;;;;5039800;28;20037;-65
2021/03/17 06:12:17;;;;;;;10.15;6.45;;;4.10;80.80;;;;;;5032134;28;20448;-66
2021/03/17 06:14:48;;;;;;;8.93;6.13;;;4.10;79.90;;;;;;5021640;28;20040;-65
2021/03/17 06:17:18;;;;;;;9.38;6.97;;;4.10;80.00;;;;;;5022655;28;20370;-65
2021/03/17 06:19:51;;;;;;;11.85;7.40;;;4.10;80.20;;;;;;5035983;28;20033;-66
2021/03/17 06:22:17;;;;;;;11.50;7.43;;;4.20;80.20;;;;;;5036488;28;20496;-65
2021/03/17 06:24:45;;;;;;;12.38;7.35;;;4.20;80.10;;;;;;5051131;28;20038;-65
2021/03/17 06:27:16;;;;;;;9.18;6.93;;;4.20;80.20;;;;;;5038257;28;20069;-65
2021/03/17 06:29:42;;;;;;;10.43;7.55;;;4.20;80.30;;;;;;5037565;28;20029;-65
2021/03/17 06:32:13;;;;;;;9.32;7.00;;;4.20;80.20;;;;;;5039348;28;20036;-65
2021/03/17 06:34:52;;;;;;;10.60;6.78;;;4.30;80.40;;;;;;5037130;28;20374;-65
2021/03/17 06:37:37;;;;;;;9.02;6.93;;;4.30;80.60;;;;;;5037850;28;20029;-65
2021/03/17 06:40:20;;;;;;;10.50;7.28;;;4.40;80.70;;;;;;5038688;28;20034;-65
2021/03/17 06:42:48;;;;;;;11.23;7.30;;;4.40;80.30;;;;;;5037806;28;20026;-65
2021/03/17 06:45:18;;;;;;;11.75;7.88;;;4.50;80.20;;;;;;5020564;28;20044;-65
2021/03/17 06:47:43;;;;;;;10.70;7.75;;;4.50;80.00;;;;;;5037088;28;20025;-65
2021/03/17 06:50:15;;;;;;;21.58;13.50;;;4.60;80.10;;;;;;5037657;28;20378;-65
2021/03/17 06:52:44;;;;;;;12.52;9.13;;;4.60;80.00;;;;;;5037882;28;20165;-65
2021/03/17 06:55:15;;;;;;;10.52;7.93;;;4.70;80.00;;;;;;5038172;28;20036;-66
2021/03/17 06:57:56;;;;;;;9.82;7.13;;;4.70;79.90;;;;;;5019683;28;20037;-65
2021/03/17 07:00:30;;;;;;;10.82;7.03;;;4.80;79.80;;;;;;5034753;28;20102;-66
2021/03/17 07:03:14;;;;;;;12.27;7.75;;;4.80;79.40;;;;;;5035050;28;20026;-65
2021/03/17 07:05:47;;;;;;;21.63;12.18;;;4.80;79.30;;;;;;5035103;28;20135;-65
2021/03/17 07:08:15;;;;;;;16.05;9.68;;;4.80;79.30;;;;;;5029220;28;20032;-65
2021/03/17 07:10:43;;;;;;;13.35;8.85;;;4.80;79.30;;;;;;5029910;28;20141;-65
2021/03/17 07:13:16;;;;;;;12.00;8.13;;;4.80;79.30;;;;;;5036339;28;20459;-66
2021/03/17 07:15:52;;;;;;;10.27;7.68;;;4.90;79.30;;;;;;5035993;28;20034;-66
2021/03/17 07:18:25;;;;;;;17.00;8.43;;;4.90;79.20;;;;;;5037696;28;20025;-66
2021/03/17 07:21:03;;;;;;;33.25;16.48;;;5.00;79.30;;;;;;5037864;28;20389;-66
2021/03/17 07:23:40;;;;;;;19.52;10.85;;;5.00;79.30;;;;;;5031991;28;20548;-65
2021/03/17 07:26:16;;;;;;;12.48;7.68;;;5.00;79.20;;;;;;5036255;28;20540;-65
2021/03/17 07:28:49;;;;;;;13.52;8.90;;;5.10;79.20;;;;;;5035753;28;20036;-65
2021/03/17 07:31:23;;;;;;;10.73;7.90;;;5.10;79.10;;;;;;5037340;28;20510;-66
2021/03/17 07:33:51;;;;;;;13.30;7.60;;;5.10;79.00;;;;;;5036247;28;20554;-66
2021/03/17 07:36:36;;;;;;;15.32;9.57;;;5.20;78.90;;;;;;5052805;28;20437;-66
2021/03/17 07:39:10;;;;;;;18.52;10.82;;;5.20;79.10;;;;;;5037183;28;20463;-65
2021/03/17 07:41:39;;;;;;;12.82;8.38;;;5.20;79.00;;;;;;5035330;28;20420;-66
2021/03/17 07:44:10;;;;;;;13.45;8.68;;;5.30;78.90;;;;;;5035484;28;20037;-66
2021/03/17 07:46:42;;;;;;;17.15;10.27;;;5.30;78.80;;;;;;5019549;28;20037;-66
2021/03/17 07:49:12;;;;;;;16.38;9.50;;;5.30;78.80;;;;;;5035601;28;20032;-65
2021/03/17 07:51:44;;;;;;;15.45;9.23;;;5.30;78.50;;;;;;5034373;28;20108;-66
2021/03/17 07:54:19;;;;;;;13.40;10.25;;;5.40;78.30;;;;;;5035693;28;20136;-66
2021/03/17 07:56:48;;;;;;;13.70;9.93;;;5.30;78.00;;;;;;5035599;28;20382;-66
2021/03/17 07:59:16;;;;;;;14.25;9.52;;;5.20;77.70;;;;;;5035641;28;20466;-66
2021/03/17 08:01:48;;;;;;;13.13;8.25;;;5.20;77.50;;;;;;5031637;28;20046;-67
2021/03/17 08:04:24;;;;;;;9.98;6.90;;;5.20;77.40;;;;;;5036182;28;20040;-66
2021/03/17 08:06:57;;;;;;;12.10;7.53;;;5.20;77.10;;;;;;5030913;28;20049;-66
2021/03/17 08:09:23;;;;;;;9.60;6.07;;;5.10;77.00;;;;;;5034943;28;20547;-66
2021/03/17 08:11:51;;;;;;;8.77;5.47;;;5.00;77.00;;;;;;5032887;28;20456;-67
2021/03/17 08:14:22;;;;;;;9.50;5.63;;;4.90;77.00;;;;;;5034111;28;20036;-66
2021/03/17 08:16:54;;;;;;;6.85;4.85;;;4.80;77.00;;;;;;5034832;28;20037;-67
2021/03/17 08:19:26;;;;;;;7.25;4.78;;;4.80;77.00;;;;;;5035693;28;20034;-67
2021/03/17 08:22:01;;;;;;;7.55;4.50;;;4.70;77.10;;;;;;5035086;28;20479;-64
2021/03/17 08:24:32;;;;;;;4.60;3.28;;;4.60;77.10;;;;;;5030208;28;20040;-66
2021/03/17 08:27:02;;;;;;;5.97;2.80;;;4.50;77.10;;;;;;5038524;28;20049;-66
2021/03/17 08:30:26;;;;;;;7.85;3.25;;;4.40;76.90;;;;;;5039254;28;20033;-66
2021/03/17 08:33:02;;;;;;;6.80;3.10;;;4.30;77.20;;;;;;5036419;28;20037;-66
2021/03/17 08:36:01;;;;;;;6.32;3.50;;;4.30;77.40;;;;;;5038410;28;20041;-65
2021/03/17 08:38:55;;;;;;;8.65;4.15;;;4.30;77.80;;;;;;5040526;28;20033;-66
2021/03/17 08:41:42;;;;;;;7.72;3.65;;;4.30;77.80;;;;;;5040107;28;20053;-67
2021/03/17 08:44:22;;;;;;;6.28;3.50;;;4.30;77.60;;;;;;5040735;28;20056;-67
2021/03/17 08:46:54;;;;;;;8.63;3.60;;;4.30;77.40;;;;;;5047316;28;20045;-66
2021/03/17 08:49:39;;;;;;;7.68;3.28;;;4.30;77.30;;;;;;5038807;28;20092;-67
2021/03/17 08:52:08;;;;;;;5.10;2.90;;;4.40;77.40;;;;;;5037687;28;20029;-65
2021/03/17 08:54:39;;;;;;;4.05;2.72;;;4.40;77.60;;;;;;5022294;28;20032;-66
2021/03/17 08:57:14;;;;;;;9.10;3.00;;;4.40;77.60;;;;;;5039703;28;20446;-67
2021/03/17 08:59:51;;;;;;;5.35;2.83;;;4.50;77.30;;;;;;5039392;28;20029;-66
2021/03/17 09:02:25;;;;;;;5.50;2.67;;;4.50;77.10;;;;;;5043363;28;20037;-67
2021/03/17 09:05:02;;;;;;;7.20;2.75;;;4.60;77.10;;;;;;5037156;28;20029;-63
2021/03/17 09:07:32;;;;;;;6.30;2.80;;;4.60;77.10;;;;;;5038804;28;20034;-67
2021/03/17 09:10:08;;;;;;;5.13;2.13;;;4.70;77.30;;;;;;5039388;28;20592;-66
2021/03/17 09:12:37;;;;;;;8.45;2.60;;;4.70;77.10;;;;;;5036444;28;20431;-66
2021/03/17 09:15:18;;;;;;;6.40;3.10;;;4.80;77.00;;;;;;5038839;28;20405;-66
2021/03/17 09:17:52;;;;;;;5.82;3.17;;;4.80;76.80;;;;;;5038095;28;20104;-65
2021/03/17 09:20:21;;;;;;;5.18;2.80;;;4.90;76.80;;;;;;5037557;28;20040;-65
2021/03/17 09:23:07;;;;;;;9.73;4.50;;;4.90;76.60;;;;;;5038836;28;20025;-65
2021/03/17 09:25:40;;;;;;;8.48;3.70;;;4.90;76.40;;;;;;5039338;28;20032;-66
2021/03/17 09:28:12;;;;;;;7.82;3.65;;;5.00;77.20;;;;;;5037983;28;20029;-66
2021/03/17 09:31:05;;;;;;;10.15;3.85;;;5.10;76.40;;;;;;5038343;28;20411;-66
2021/03/17 09:33:39;;;;;;;4.72;3.63;;;5.10;76.50;;;;;;5032592;28;20107;-66
2021/03/17 09:36:13;;;;;;;9.35;5.07;;;5.10;76.30;;;;;;5038670;28;20572;-66
2021/03/17 09:38:40;;;;;;;7.47;4.68;;;5.20;76.40;;;;;;5036858;28;20504;-66
2021/03/17 09:41:16;;;;;;;8.77;4.88;;;5.20;76.20;;;;;;5038563;28;20082;-66
2021/03/17 09:43:51;;;;;;;10.20;4.53;;;5.30;76.10;;;;;;5039210;28;20500;-66
2021/03/17 09:46:35;;;;;;;7.57;4.60;;;5.30;75.80;;;;;;5040069;28;20021;-67
2021/03/17 09:49:11;;;;;;;5.43;4.05;;;5.30;76.00;;;;;;5038130;28;20554;-66
2021/03/17 09:52:01;;;;;;;9.00;4.07;;;5.40;75.70;;;;;;5038301;28;20407;-67
2021/03/17 09:54:32;;;;;;;7.13;4.32;;;5.30;75.90;;;;;;5037631;28;20400;-67
2021/03/17 09:57:07;;;;;;;8.20;5.10;;;5.40;76.00;;;;;;5037874;28;20564;-66
2021/03/17 09:59:35;;;;;;;;;;;5.40;75.60;;;;;;5036443;28;20148;-67
2021/03/17 10:02:18;;;;;;;7.70;4.90;;;5.40;75.50;;;;;;5038982;28;19920;-66
2021/03/17 10:05:00;;;;;;;6.63;4.53;;;5.40;76.20;;;;;;5053615;28;20037;-65
2021/03/17 10:07:34;;;;;;;8.02;4.80;;;5.40;76.30;;;;;;5037951;28;20117;-66
2021/03/17 10:10:02;;;;;;;6.78;4.85;;;5.50;76.40;;;;;;5036691;28;20085;-66
2021/03/17 10:12:33;;;;;;;10.00;5.47;;;5.50;76.70;;;;;;5034849;28;20035;-66
2021/03/17 10:15:07;;;;;;;9.05;4.88;;;5.50;76.40;;;;;;5038669;28;20489;-65
2021/03/17 10:17:35;;;;;;;9.00;5.22;;;5.60;76.20;;;;;;5036448;28;20034;-65
2021/03/17 10:20:12;;;;;;;10.80;5.90;;;5.70;76.70;;;;;;5044455;28;20033;-65
2021/03/17 10:22:40;;;;;;;8.30;5.65;;;5.70;76.70;;;;;;5037909;28;20037;-65
2021/03/17 10:25:21;;;;;;;7.93;4.55;;;5.80;76.90;;;;;;5037622;28;20033;-66
2021/03/17 10:27:58;;;;;;;8.25;4.50;;;5.90;72.70;;;;;;5038485;28;20117;-66
2021/03/17 10:30:32;;;;;;;8.95;4.80;;;5.90;72.10;;;;;;5033761;28;20033;-65
2021/03/17 10:33:01;;;;;;;7.88;4.38;;;5.90;73.30;;;;;;5037699;28;20037;-66
2021/03/17 10:35:34;;;;;;;6.80;3.90;;;6.00;73.20;;;;;;5038409;28;20147;-66
2021/03/17 10:38:06;;;;;;;6.10;3.80;;;6.00;72.60;;;;;;5034493;28;20026;-66
2021/03/17 10:40:36;;;;;;;6.05;3.92;;;6.10;72.20;;;;;;5037311;28;20033;-66
2021/03/17 10:43:14;;;;;;;11.73;5.43;;;6.20;73.40;;;;;;5038179;28;20445;-66
2021/03/17 10:45:48;;;;;;;8.80;4.53;;;6.20;72.40;;;;;;5038063;28;20029;-66
2021/03/17 10:48:18;;;;;;;5.45;3.17;;;6.30;71.20;;;;;;5037592;28;20385;-65
2021/03/17 10:50:45;;;;;;;3.70;2.92;;;6.40;71.40;;;;;;5049779;28;20034;-66
2021/03/17 10:53:26;;;;;;;5.93;3.55;;;6.40;71.80;;;;;;5036644;28;20112;-66
2021/03/17 10:56:02;;;;;;;7.47;3.50;;;6.50;69.80;;;;;;5032448;28;20041;-67
2021/03/17 10:58:30;;;;;;;9.48;4.80;;;6.50;68.90;;;;;;5034592;28;20037;-66
2021/03/17 11:01:04;;;;;;;13.57;4.07;;;6.60;69.60;;;;;;5036205;28;20021;-66
2021/03/17 11:03:38;;;;;;;5.85;3.70;;;6.60;68.90;;;;;;5037470;28;20037;-65
2021/03/17 11:06:13;;;;;;;6.25;3.58;;;6.60;69.10;;;;;;5036104;28;20041;-66
2021/03/17 11:08:42;;;;;;;6.72;3.95;;;6.60;68.70;;;;;;5037357;28;20127;-66
2021/03/17 11:11:14;;;;;;;9.10;3.55;;;6.60;69.30;;;;;;5031918;28;20556;-66
2021/03/17 11:13:53;;;;;;;3.83;3.00;;;6.60;68.40;;;;;;5036573;28;20037;-66
2021/03/17 11:16:31;;;;;;;4.05;3.00;;;6.60;69.00;;;;;;5037090;28;20033;-66
2021/03/17 11:19:00;;;;;;;5.20;2.90;;;6.60;67.20;;;;;;5033310;28;20025;-65
2021/03/17 11:21:34;;;;;;;4.50;2.85;;;6.70;68.20;;;;;;5034069;28;20065;-65
2021/03/17 11:24:04;;;;;;;4.20;3.00;;;6.70;68.00;;;;;;5035999;28;20033;-65
2021/03/17 11:26:42;;;;;;;3.55;2.40;;;6.80;68.30;;;;;;5034535;28;20037;-65
2021/03/17 11:29:21;;;;;;;4.90;2.67;;;6.90;66.60;;;;;;5036659;28;20090;-65
2021/03/17 11:31:56;;;;;;;2.40;2.20;;;6.90;65.50;;;;;;5035753;28;20076;-65
2021/03/17 11:34:27;;;;;;;3.80;2.58;;;6.90;65.70;;;;;;5037057;28;20033;-66
2021/03/17 11:36:55;;;;;;;3.60;2.53;;;7.00;66.90;;;;;;5036092;28;20030;-65
2021/03/17 11:39:23;;;;;;;3.47;2.33;;;7.00;65.70;;;;;;5037778;28;20504;-64
2021/03/17 11:41:49;;;;;;;3.80;2.80;;;7.10;66.30;;;;;;5032085;28;20037;-65
2021/03/17 11:44:20;;;;;;;5.53;3.05;;;7.10;66.40;;;;;;5036275;28;20041;-65
2021/03/17 11:46:51;;;;;;;3.75;2.90;;;7.10;65.70;;;;;;5035779;28;20038;-65
2021/03/17 11:49:23;;;;;;;4.07;2.55;;;7.20;64.80;;;;;;5035810;28;20045;-65
2021/03/17 11:51:49;;;;;;;4.28;3.08;;;7.20;63.20;;;;;;5034379;28;20475;-65
2021/03/17 11:54:15;;;;;;;5.53;2.58;;;7.20;63.30;;;;;;5036549;28;20037;-65
2021/03/17 11:56:41;;;;;;;2.95;2.35;;;7.20;64.80;;;;;;5036495;28;20037;-65
2021/03/17 11:59:08;;;;;;;4.22;3.03;;;7.20;65.50;;;;;;5035380;28;20029;-65
2021/03/17 12:01:34;;;;;;;3.63;2.78;;;7.30;63.30;;;;;;5034380;28;20045;-65
2021/03/17 12:04:04;;;;;;;3.78;2.65;;;7.30;62.40;;;;;;5036287;28;20041;-66
2021/03/17 12:06:35;;;;;;;5.68;3.10;;;7.30;64.00;;;;;;5035551;28;20033;-65
2021/03/17 12:09:01;;;;;;;4.60;3.05;;;7.40;62.60;;;;;;5036677;28;20496;-65
2021/03/17 12:11:29;;;;;;;5.43;2.70;;;7.40;62.40;;;;;;5031996;28;20041;-65
2021/03/17 12:13:57;;;;;;;4.15;2.70;;;7.40;63.30;;;;;;5036740;28;20017;-65
2021/03/17 12:16:25;;;;;;;5.32;2.88;;;7.40;63.80;;;;;;5035782;28;20041;-65
2021/03/17 12:18:51;;;;;;;4.35;2.70;;;7.40;63.60;;;;;;5035940;28;20051;-65
2021/03/17 12:21:21;;;;;;;6.05;3.25;;;7.40;63.80;;;;;;5033196;28;20041;-65
2021/03/17 12:23:50;;;;;;;3.83;3.05;;;7.50;61.80;;;;;;5035232;28;20037;-65
2021/03/17 12:26:18;;;;;;;4.10;2.95;;;7.50;62.40;;;;;;5037076;28;20047;-66
2021/03/17 12:28:48;;;;;;;3.42;2.90;;;7.50;63.10;;;;;;5036029;28;20132;-65
2021/03/17 12:31:15;;;;;;;5.55;2.90;;;7.50;63.10;;;;;;5036121;28;20073;-65
2021/03/17 12:33:41;;;;;;;5.75;2.50;;;7.60;63.70;;;;;;5037229;28;20025;-65
2021/03/17 12:36:09;;;;;;;4.63;2.70;;;7.60;62.90;;;;;;5036152;28;20527;-65
2021/03/17 12:38:39;;;;;;;4.40;2.60;;;7.70;61.30;;;;;;5032095;28;20045;-65
2021/03/17 12:41:05;;;;;;;10.60;2.90;;;7.70;60.00;;;;;;5033845;28;20037;-65
2021/03/17 12:43:30;;;;;;;6.03;2.58;;;7.70;60.10;;;;;;5042075;28;20029;-65
2021/03/17 12:45:56;;;;;;;3.55;2.53;;;7.60;60.70;;;;;;5035291;28;20144;-65
2021/03/17 12:48:24;;;;;;;4.00;2.67;;;7.60;61.00;;;;;;5033255;28;20033;-66
2021/03/17 12:50:54;;;;;;;2.80;2.50;;;7.60;60.80;;;;;;5035654;28;20029;-65
2021/03/17 12:53:25;;;;;;;5.00;2.95;;;7.50;61.70;;;;;;5031845;28;20497;-65
2021/03/17 12:55:52;;;;;;;5.32;2.70;;;7.50;60.70;;;;;;5034035;28;20025;-64
2021/03/17 12:58:23;;;;;;;6.78;2.80;;;7.50;59.80;;;;;;5035904;28;20504;-65
2021/03/17 13:00:50;;;;;;;4.20;3.10;;;7.50;61.30;;;;;;5033012;28;20038;-65
2021/03/17 13:03:18;;;;;;;4.38;3.00;;;7.40;60.80;;;;;;5038749;28;20034;-65
2021/03/17 13:05:44;;;;;;;5.45;3.28;;;7.40;61.50;;;;;;5035748;28;20053;-65
2021/03/17 13:08:09;;;;;;;5.70;3.50;;;7.30;62.30;;;;;;5034640;28;20038;-65
2021/03/17 13:10:37;;;;;;;4.30;3.10;;;7.20;62.90;;;;;;5031060;28;20035;-65
2021/03/17 13:13:10;;;;;;;6.10;3.63;;;7.20;63.70;;;;;;5045640;28;20034;-65
2021/03/17 13:15:36;;;;;;;5.03;3.40;;;7.10;64.30;;;;;;5039746;28;20128;-65
2021/03/17 13:18:07;;;;;;;4.00;3.45;;;7.10;65.00;;;;;;5044428;28;20112;-66
2021/03/17 13:20:37;;;;;;;7.35;4.03;;;7.10;65.10;;;;;;5039007;28;20576;-65